Time;durP1;ratioP1;P1;durP2;ratioP2;P2;SDS_P1;SDS_P2;PMS_P1;PMS_P2;Temp;Humidity;BMP_temperature;BMP_pressure;BME280_temperature;BME280_humidity;BME280_pressure;Samples;Min_cycle;Max_cycle;Signal;HPM_P1;HPM_P2
2021/01/09 00:00:17;;;;;;;15.80;12.30;;;1.50;97.70;;;;;;5018662;28;20201;-88
2021/01/09 00:02:43;;;;;;;16.07;12.67;;;1.50;96.70;;;;;;5018270;28;20271;-88
2021/01/09 00:05:10;;;;;;;16.47;12.47;;;1.40;97.10;;;;;;5018515;28;20189;-89
2021/01/09 00:07:36;;;;;;;15.00;12.33;;;1.40;97.90;;;;;;5000983;28;20238;-89
2021/01/09 00:10:05;;;;;;;15.53;12.90;;;1.40;97.50;;;;;;5018648;28;20315;-89
2021/01/09 00:12:32;;;;;;;15.83;12.60;;;1.50;97.70;;;;;;5000313;28;20213;-89
2021/01/09 00:14:57;;;;;;;15.33;12.07;;;1.60;95.40;;;;;;5017969;28;20177;-89
2021/01/09 00:17:23;;;;;;;13.70;11.63;;;1.70;95.30;;;;;;5017143;28;20188;-89
2021/01/09 00:19:49;;;;;;;15.90;12.77;;;1.70;95.90;;;;;;5032072;28;20200;-89
2021/01/09 00:22:14;;;;;;;14.57;12.27;;;1.80;94.70;;;;;;5036712;28;20181;-89
2021/01/09 00:24:40;;;;;;;14.73;12.40;;;1.70;95.40;;;;;;5036331;28;20185;-89
2021/01/09 00:27:12;;;;;;;14.63;11.43;;;1.70;96.00;;;;;;5036284;28;20192;-89
2021/01/09 00:29:40;;;;;;;13.77;11.87;;;1.70;95.50;;;;;;5037400;28;20227;-90
2021/01/09 00:32:06;;;;;;;14.60;11.47;;;1.70;96.10;;;;;;5037770;28;20187;-89
2021/01/09 00:34:32;;;;;;;15.07;12.23;;;1.80;95.30;;;;;;5033396;28;20272;-89
2021/01/09 00:36:58;;;;;;;14.73;11.57;;;1.90;94.70;;;;;;5018005;28;20178;-89
2021/01/09 00:39:24;;;;;;;13.30;11.80;;;1.90;95.10;;;;;;5015608;28;20209;-88
2021/01/09 00:41:50;;;;;;;15.80;12.40;;;1.90;94.30;;;;;;5017884;28;20232;-89
2021/01/09 00:44:16;;;;;;;15.20;12.07;;;1.90;94.20;;;;;;5018023;28;20185;-89
2021/01/09 00:46:41;;;;;;;15.33;12.83;;;1.90;93.60;;;;;;5018099;28;20181;-88
2021/01/09 00:49:07;;;;;;;16.97;13.97;;;1.70;95.00;;;;;;5017631;28;20220;-89
2021/01/09 00:51:33;;;;;;;16.93;13.93;;;1.70;94.60;;;;;;5016585;28;20638;-89
2021/01/09 00:53:58;;;;;;;16.67;12.77;;;1.60;95.10;;;;;;5014786;28;20181;-89
2021/01/09 00:56:24;;;;;;;16.93;12.83;;;1.50;95.90;;;;;;5015376;28;20284;-89
2021/01/09 00:58:50;;;;;;;17.33;12.60;;;1.50;95.80;;;;;;5015866;28;20236;-89
2021/01/09 01:01:16;;;;;;;16.03;12.00;;;1.50;96.50;;;;;;5015325;28;20190;-89
2021/01/09 01:03:42;;;;;;;15.53;12.13;;;1.50;96.80;;;;;;5016063;28;20193;-89
2021/01/09 01:06:09;;;;;;;15.30;12.30;;;1.60;96.50;;;;;;5014543;28;20303;-90
2021/01/09 01:08:34;;;;;;;13.57;12.07;;;1.70;95.50;;;;;;5015501;28;20271;-90
2021/01/09 01:11:00;;;;;;;15.20;13.03;;;1.70;95.30;;;;;;5015719;28;20399;-90
2021/01/09 01:13:26;;;;;;;15.63;12.70;;;1.70;95.20;;;;;;5015574;28;20185;-90
2021/01/09 01:15:52;;;;;;;15.77;12.07;;;1.70;95.30;;;;;;5016158;28;20533;-90
2021/01/09 01:18:23;;;;;;;15.70;12.30;;;1.80;94.70;;;;;;5016255;28;20209;-90
2021/01/09 01:20:50;;;;;;;14.53;12.33;;;1.90;94.70;;;;;;5016047;28;20178;-90
2021/01/09 01:23:17;;;;;;;17.47;13.17;;;1.90;94.30;;;;;;5014726;28;20259;-90
2021/01/09 01:25:43;;;;;;;17.27;13.40;;;1.80;94.30;;;;;;5016680;28;20264;-90
2021/01/09 01:28:09;;;;;;;15.50;12.83;;;1.70;94.80;;;;;;5016011;28;20245;-90
2021/01/09 01:30:34;;;;;;;17.00;12.43;;;1.70;95.10;;;;;;5015025;28;20209;-90
2021/01/09 01:33:00;;;;;;;15.53;13.30;;;1.70;95.70;;;;;;5018041;28;20182;-90
2021/01/09 01:35:26;;;;;;;16.37;12.77;;;1.70;95.60;;;;;;5036305;28;20189;-89
2021/01/09 01:37:52;;;;;;;17.50;12.90;;;1.60;95.10;;;;;;5034054;28;20221;-90
2021/01/09 01:40:18;;;;;;;17.50;13.40;;;1.70;95.10;;;;;;5034696;28;20205;-89
2021/01/09 01:42:43;;;;;;;17.10;13.80;;;1.80;93.80;;;;;;5036252;28;20192;-89
2021/01/09 01:45:09;;;;;;;16.87;13.30;;;1.80;94.30;;;;;;5023439;28;20213;-89
2021/01/09 01:47:35;;;;;;;18.03;13.93;;;1.80;94.40;;;;;;5016573;28;20201;-89
2021/01/09 01:50:03;;;;;;;16.17;12.70;;;1.80;94.10;;;;;;5016124;28;20580;-89
2021/01/09 01:52:29;;;;;;;16.10;13.17;;;1.90;93.90;;;;;;5019176;28;20672;-89
2021/01/09 01:54:55;;;;;;;15.73;12.33;;;2.00;93.50;;;;;;5002541;28;20182;-88
2021/01/09 01:57:21;;;;;;;16.60;13.10;;;1.90;93.70;;;;;;5020177;28;20181;-89
2021/01/09 01:59:46;;;;;;;19.13;13.70;;;1.70;93.80;;;;;;5020071;28;20240;-89
2021/01/09 02:02:14;;;;;;;19.00;14.47;;;1.60;94.40;;;;;;5019742;28;20641;-89
2021/01/09 02:04:40;;;;;;;16.67;13.47;;;1.50;95.20;;;;;;5019825;28;20201;-89
2021/01/09 02:07:12;;;;;;;17.57;12.57;;;1.50;96.00;;;;;;5019542;28;20201;-89
2021/01/09 02:09:42;;;;;;;15.23;12.30;;;1.60;95.60;;;;;;5019417;28;20197;-89
2021/01/09 02:12:16;;;;;;;14.57;11.90;;;1.80;95.10;;;;;;5020001;28;20201;-89
2021/01/09 02:14:51;;;;;;;19.53;12.93;;;1.80;94.50;;;;;;5020138;28;20166;-89
2021/01/09 02:17:18;;;;;;;15.90;12.60;;;2.00;93.90;;;;;;5019856;28;20185;-89
2021/01/09 02:19:45;;;;;;;15.27;12.47;;;2.10;92.40;;;;;;5002476;28;20216;-90
2021/01/09 02:22:15;;;;;;;17.50;11.87;;;2.20;92.40;;;;;;5020157;28;20177;-89
2021/01/09 02:24:41;;;;;;;17.50;14.20;;;2.00;93.40;;;;;;5019084;28;20240;-90
2021/01/09 02:27:08;;;;;;;17.83;13.80;;;1.80;94.70;;;;;;5019738;28;20553;-89
2021/01/09 02:29:42;;;;;;;14.27;12.10;;;1.70;95.80;;;;;;5019119;28;20580;-89
2021/01/09 02:32:10;;;;;;;13.83;12.33;;;1.70;96.00;;;;;;5019123;28;20197;-89
2021/01/09 02:34:44;;;;;;;15.77;12.43;;;1.90;95.20;;;;;;5018442;28;20182;-89
2021/01/09 02:37:10;;;;;;;15.97;12.60;;;2.00;94.70;;;;;;5001267;28;20228;-90
2021/01/09 02:39:36;;;;;;;16.70;12.40;;;2.10;93.70;;;;;;5018980;28;20209;-90
2021/01/09 02:42:03;;;;;;;16.37;13.00;;;2.20;93.20;;;;;;5019149;28;20209;-89
2021/01/09 02:44:29;;;;;;;15.00;12.60;;;2.20;92.90;;;;;;5001474;28;20193;-90
2021/01/09 02:46:55;;;;;;;14.90;12.20;;;2.20;93.30;;;;;;5018999;28;20177;-89
2021/01/09 02:49:21;;;;;;;15.87;12.40;;;2.20;93.60;;;;;;5018812;28;20201;-89
2021/01/09 02:51:46;;;;;;;16.70;14.90;;;2.30;94.00;;;;;;5019912;28;20182;-89
2021/01/09 02:54:12;;;;;;;16.97;13.53;;;2.20;92.30;;;;;;5002531;28;20182;-89
2021/01/09 02:56:37;;;;;;;15.83;12.60;;;2.20;93.00;;;;;;5020396;28;20514;-89
2021/01/09 02:59:03;;;;;;;13.40;11.70;;;2.30;93.10;;;;;;5020161;28;20202;-90
2021/01/09 03:01:30;;;;;;;15.17;12.77;;;2.40;92.50;;;;;;5020150;28;20190;-89
2021/01/09 03:03:56;;;;;;;14.83;12.27;;;2.40;92.60;;;;;;5019893;28;20182;-89
2021/01/09 03:06:22;;;;;;;15.90;12.90;;;2.40;92.20;;;;;;5019728;28;20177;-89
2021/01/09 03:08:48;;;;;;;14.83;11.77;;;2.40;92.50;;;;;;5019959;28;20202;-89
2021/01/09 03:11:15;;;;;;;14.60;11.87;;;2.40;92.20;;;;;;5019967;28;20300;-89
2021/01/09 03:13:42;;;;;;;14.27;12.00;;;2.40;92.50;;;;;;5019874;28;20201;-90
2021/01/09 03:16:07;;;;;;;17.13;13.13;;;2.40;92.70;;;;;;5019956;28;20182;-89
2021/01/09 03:18:33;;;;;;;13.57;12.17;;;2.40;92.00;;;;;;5020041;28;20276;-89
2021/01/09 03:20:59;;;;;;;14.37;12.80;;;2.40;92.20;;;;;;5018721;28;20232;-89
2021/01/09 03:23:24;;;;;;;14.37;11.10;;;2.40;91.70;;;;;;5018302;28;20669;-88
2021/01/09 03:25:50;;;;;;;13.67;11.23;;;2.40;91.60;;;;;;5018815;28;20208;-88
2021/01/09 03:28:15;;;;;;;13.67;11.23;;;2.40;91.80;;;;;;5018319;28;20292;-90
2021/01/09 03:30:41;;;;;;;14.27;11.93;;;2.40;92.00;;;;;;5018741;28;20248;-89
2021/01/09 03:33:07;;;;;;;16.07;12.13;;;2.40;92.40;;;;;;5000823;28;20177;-89
2021/01/09 03:35:32;;;;;;;16.47;13.00;;;2.40;92.30;;;;;;5018533;28;20178;-89
2021/01/09 03:37:58;;;;;;;14.97;11.80;;;2.20;93.50;;;;;;5004857;28;20271;-88
2021/01/09 03:40:24;;;;;;;15.10;12.80;;;2.20;94.10;;;;;;5018386;28;20177;-89
2021/01/09 03:42:49;;;;;;;13.93;12.07;;;2.10;93.50;;;;;;5017351;28;20182;-89
2021/01/09 03:45:15;;;;;;;14.53;12.33;;;2.10;94.20;;;;;;5018231;28;20178;-89
2021/01/09 03:47:40;;;;;;;14.50;11.20;;;2.20;93.80;;;;;;5016921;28;20607;-89
2021/01/09 03:50:06;;;;;;;13.90;12.30;;;2.20;94.00;;;;;;5018351;28;20296;-89
2021/01/09 03:52:32;;;;;;;15.73;12.83;;;2.20;93.70;;;;;;5002893;28;20186;-89
2021/01/09 03:54:58;;;;;;;16.73;12.77;;;2.20;94.10;;;;;;5018963;28;20181;-89
2021/01/09 03:57:24;;;;;;;14.00;11.43;;;2.10;94.40;;;;;;5020694;28;20178;-89
2021/01/09 03:59:49;;;;;;;13.20;11.00;;;2.20;94.40;;;;;;5020399;28;20200;-89
2021/01/09 04:02:16;;;;;;;15.30;12.17;;;2.30;93.90;;;;;;5019927;28;20738;-89
2021/01/09 04:04:42;;;;;;;15.80;12.40;;;2.40;92.90;;;;;;5019298;28;20219;-89
2021/01/09 04:07:08;;;;;;;13.67;11.53;;;2.40;92.50;;;;;;5017830;28;20189;-89
2021/01/09 04:09:34;;;;;;;14.80;12.30;;;2.50;92.30;;;;;;5020241;28;20202;-89
2021/01/09 04:11:59;;;;;;;15.53;12.87;;;2.50;91.90;;;;;;5019123;28;20177;-90
2021/01/09 04:14:25;;;;;;;13.33;11.00;;;2.40;92.00;;;;;;5018060;28;20217;-89
2021/01/09 04:16:51;;;;;;;13.50;12.00;;;2.40;92.60;;;;;;5019460;28;20182;-89
2021/01/09 04:19:16;;;;;;;14.47;12.00;;;2.40;92.50;;;;;;5017392;28;20205;-90
2021/01/09 04:21:47;;;;;;;14.67;12.47;;;2.40;92.70;;;;;;5019272;28;20185;-89
2021/01/09 04:24:13;;;;;;;14.03;12.40;;;2.40;92.30;;;;;;5019408;28;20277;-89
2021/01/09 04:26:39;;;;;;;14.70;13.10;;;2.40;92.20;;;;;;5019160;28;20260;-90
2021/01/09 04:29:04;;;;;;;14.73;12.70;;;2.40;92.20;;;;;;5018827;28;20619;-89
2021/01/09 04:31:30;;;;;;;13.43;11.77;;;2.30;92.40;;;;;;5018935;28;20251;-90
2021/01/09 04:33:56;;;;;;;14.00;12.50;;;2.20;93.30;;;;;;5018759;28;20186;-90
2021/01/09 04:36:22;;;;;;;15.77;12.70;;;2.20;93.00;;;;;;5018758;28;20177;-89
2021/01/09 04:38:47;;;;;;;14.03;11.97;;;2.20;93.00;;;;;;5017976;28;20222;-89
2021/01/09 04:41:14;;;;;;;13.30;11.63;;;2.20;92.40;;;;;;5018611;28;20253;-89
2021/01/09 04:43:40;;;;;;;14.33;11.47;;;2.20;92.60;;;;;;5018630;28;20205;-89
2021/01/09 04:46:07;;;;;;;15.77;12.23;;;2.20;92.60;;;;;;5018698;28;20185;-90
2021/01/09 04:48:33;;;;;;;14.77;11.43;;;2.20;92.10;;;;;;5018893;28;20636;-88
2021/01/09 04:50:59;;;;;;;13.73;11.63;;;2.20;92.00;;;;;;5018607;28;20333;-89
2021/01/09 04:53:25;;;;;;;13.27;11.83;;;2.20;91.40;;;;;;5018893;28;20205;-90
2021/01/09 04:55:53;;;;;;;15.37;12.43;;;2.20;91.10;;;;;;5018863;28;20184;-90
2021/01/09 04:58:18;;;;;;;16.97;12.33;;;2.30;90.80;;;;;;5018871;28;20262;-90
2021/01/09 05:00:47;;;;;;;13.63;11.60;;;2.30;90.20;;;;;;5018877;28;20303;-90
2021/01/09 05:03:13;;;;;;;13.10;11.70;;;2.20;90.20;;;;;;5001833;28;20188;-90
2021/01/09 05:05:38;;;;;;;14.00;11.40;;;2.20;90.40;;;;;;5018836;28;20241;-90
2021/01/09 05:08:04;;;;;;;14.80;12.30;;;2.20;90.10;;;;;;5018588;28;20201;-90
2021/01/09 05:10:36;;;;;;;15.60;10.93;;;2.20;90.50;;;;;;5018769;28;20743;-89
2021/01/09 05:13:05;;;;;;;13.50;11.40;;;2.10;90.80;;;;;;5000959;28;20185;-90
2021/01/09 05:15:41;;;;;;;14.90;11.67;;;2.10;91.10;;;;;;5001219;28;20204;-90
2021/01/09 05:18:07;;;;;;;12.27;10.67;;;2.20;90.80;;;;;;5001124;28;20291;-90
2021/01/09 05:20:33;;;;;;;14.60;11.80;;;2.20;90.60;;;;;;5018637;28;20653;-90
2021/01/09 05:23:00;;;;;;;13.27;11.13;;;2.20;90.50;;;;;;5001213;28;20178;-90
2021/01/09 05:25:27;;;;;;;14.37;11.90;;;2.20;90.50;;;;;;5025286;28;20273;-90
2021/01/09 05:27:54;;;;;;;12.97;11.10;;;2.20;91.00;;;;;;5025194;28;20205;-90
2021/01/09 05:30:21;;;;;;;13.23;11.50;;;2.10;90.60;;;;;;5005851;28;20240;-90
2021/01/09 05:32:47;;;;;;;12.53;10.23;;;2.10;90.10;;;;;;5023857;28;20193;-90
2021/01/09 05:35:14;;;;;;;13.37;11.33;;;2.00;90.10;;;;;;5023173;28;20178;-90
2021/01/09 05:37:40;;;;;;;12.30;10.13;;;2.00;90.00;;;;;;5023610;28;20213;-90
2021/01/09 05:40:07;;;;;;;13.20;10.20;;;1.90;91.00;;;;;;5023929;28;20205;-90
2021/01/09 05:42:34;;;;;;;12.50;10.43;;;2.00;91.10;;;;;;5023400;28;20177;-89
2021/01/09 05:45:00;;;;;;;11.97;10.43;;;2.00;90.70;;;;;;5023281;28;20236;-90
2021/01/09 05:47:27;;;;;;;12.47;10.30;;;2.10;90.60;;;;;;5023073;28;20213;-90
2021/01/09 05:49:55;;;;;;;13.23;10.63;;;2.00;90.60;;;;;;5023265;28;20550;-90
2021/01/09 05:52:25;;;;;;;11.57;10.37;;;2.00;90.90;;;;;;5023378;28;20241;-90
2021/01/09 05:54:58;;;;;;;11.73;10.13;;;2.10;90.90;;;;;;5023349;28;20177;-90
2021/01/09 05:57:28;;;;;;;13.67;11.07;;;2.10;90.50;;;;;;5006275;28;20223;-89
2021/01/09 05:59:57;;;;;;;12.97;10.93;;;2.10;90.20;;;;;;5023773;28;20185;-90
2021/01/09 06:02:24;;;;;;;12.80;11.10;;;2.10;89.80;;;;;;5006729;28;20185;-90
2021/01/09 06:04:55;;;;;;;12.03;10.27;;;2.10;89.90;;;;;;5024168;28;20196;-90
2021/01/09 06:07:27;;;;;;;13.67;10.70;;;2.10;89.90;;;;;;5005901;28;20669;-90
2021/01/09 06:09:58;;;;;;;12.13;10.07;;;2.10;89.50;;;;;;5023367;28;20781;-90
2021/01/09 06:12:26;;;;;;;11.40;9.80;;;2.10;89.20;;;;;;5005533;28;20242;-89
2021/01/09 06:14:53;;;;;;;10.83;9.30;;;2.10;89.20;;;;;;5004847;28;20181;-89
2021/01/09 06:17:21;;;;;;;10.43;8.40;;;2.10;89.10;;;;;;5005456;28;20185;-89
2021/01/09 06:19:47;;;;;;;10.77;9.30;;;2.10;88.90;;;;;;5023389;28;20661;-89
2021/01/09 06:22:13;;;;;;;10.53;9.30;;;2.10;88.70;;;;;;5022722;28;20610;-90
2021/01/09 06:24:40;;;;;;;9.93;8.87;;;2.00;89.00;;;;;;5022431;28;20209;-89
2021/01/09 06:27:09;;;;;;;10.27;8.30;;;2.00;88.60;;;;;;5006316;28;20211;-89
2021/01/09 06:29:37;;;;;;;10.60;9.33;;;2.00;88.40;;;;;;5006785;28;20190;-89
2021/01/09 06:32:08;;;;;;;12.53;9.87;;;2.00;88.40;;;;;;5023811;28;20268;-88
2021/01/09 06:34:38;;;;;;;11.43;8.73;;;1.90;88.70;;;;;;5024383;28;20181;-89
2021/01/09 06:37:05;;;;;;;10.20;9.00;;;1.90;88.50;;;;;;5022283;28;20177;-89
2021/01/09 06:39:34;;;;;;;9.33;8.30;;;1.90;88.50;;;;;;5022213;28;20185;-89
2021/01/09 06:42:03;;;;;;;9.70;8.63;;;1.80;88.90;;;;;;5004941;28;20715;-89
2021/01/09 06:44:30;;;;;;;11.80;8.83;;;1.70;88.20;;;;;;5022427;28;20177;-89
2021/01/09 06:46:56;;;;;;;10.37;8.90;;;1.70;89.00;;;;;;5022398;28;20375;-89
2021/01/09 06:49:23;;;;;;;9.67;8.57;;;1.60;89.30;;;;;;5022757;28;20201;-90
2021/01/09 06:52:01;;;;;;;9.30;8.20;;;1.70;89.80;;;;;;5022911;28;20311;-89
2021/01/09 06:54:47;;;;;;;10.57;9.10;;;1.80;89.40;;;;;;5022617;28;20196;-89
2021/01/09 06:57:20;;;;;;;12.30;10.03;;;1.80;89.20;;;;;;5022559;28;20169;-89
2021/01/09 06:59:51;;;;;;;10.93;9.07;;;1.70;88.90;;;;;;5022255;28;20236;-89
2021/01/09 07:02:23;;;;;;;13.17;9.60;;;1.80;88.70;;;;;;5022053;28;20208;-90
2021/01/09 07:04:59;;;;;;;11.13;9.30;;;1.80;88.60;;;;;;5021890;28;20272;-89
2021/01/09 07:07:49;;;;;;;10.40;8.97;;;1.70;88.40;;;;;;5004284;28;20173;-89
2021/01/09 07:10:17;;;;;;;10.27;9.13;;;1.70;88.40;;;;;;5023165;28;20228;-90
2021/01/09 07:13:07;;;;;;;12.60;9.67;;;1.80;88.40;;;;;;5020849;28;20672;-88
2021/01/09 07:15:35;;;;;;;11.10;9.27;;;1.70;88.60;;;;;;5021134;28;20637;-88
2021/01/09 07:18:06;;;;;;;9.53;8.33;;;1.60;88.60;;;;;;5022856;28;20198;-88
2021/01/09 07:20:48;;;;;;;10.97;9.27;;;1.60;88.90;;;;;;5003714;28;20613;-87
2021/01/09 07:23:17;;;;;;;10.37;9.00;;;1.50;88.80;;;;;;5020997;28;20173;-87
2021/01/09 07:25:47;;;;;;;10.67;8.97;;;1.40;89.50;;;;;;5021102;28;20655;-89
2021/01/09 07:28:19;;;;;;;10.23;8.30;;;1.50;89.60;;;;;;5004370;28;20495;-91
2021/01/09 07:30:45;;;;;;;10.40;9.27;;;1.50;89.60;;;;;;5020519;28;20213;-90
2021/01/09 07:33:14;;;;;;;11.63;9.50;;;1.50;89.60;;;;;;5019182;28;20189;-90
2021/01/09 07:35:42;;;;;;;10.23;9.17;;;1.50;89.70;;;;;;5002482;28;20185;-89
2021/01/09 07:38:08;;;;;;;13.10;10.07;;;1.60;89.40;;;;;;5018099;28;20220;-89
2021/01/09 07:40:46;;;;;;;12.13;9.87;;;1.50;89.80;;;;;;5019388;28;20192;-90
2021/01/09 07:43:47;;;;;;;11.57;9.57;;;1.60;89.60;;;;;;5001349;28;20177;-91
2021/01/09 07:46:32;;;;;;;11.67;10.23;;;1.60;89.50;;;;;;5018723;28;20190;-90
2021/01/09 07:49:02;;;;;;;12.30;10.20;;;1.60;89.60;;;;;;5018303;28;20209;-91
2021/01/09 07:51:48;;;;;;;12.87;10.80;;;1.60;89.60;;;;;;5018825;28;20719;-90
2021/01/09 07:54:37;;;;;;;14.17;11.23;;;1.60;89.60;;;;;;5019144;28;20173;-90
2021/01/09 07:57:20;;;;;;;14.33;12.47;;;1.70;89.30;;;;;;4986319;28;20217;-90
2021/01/09 08:00:00;;;;;;;14.27;11.73;;;1.60;88.80;;;;;;5002311;28;20193;-90
2021/01/09 08:02:30;;;;;;;16.87;13.37;;;1.60;89.30;;;;;;5019179;28;20158;-91
2021/01/09 08:05:19;;;;;;;21.63;17.73;;;1.60;88.50;;;;;;5024630;28;20173;-91
2021/01/09 08:07:53;;;;;;;25.50;20.13;;;1.60;88.30;;;;;;5023595;28;20193;-90
2021/01/09 08:10:20;;;;;;;17.70;14.03;;;1.50;88.90;;;;;;5021624;28;20209;-90
2021/01/09 08:12:47;;;;;;;13.30;11.60;;;1.40;89.70;;;;;;5024915;28;20180;-90
2021/01/09 08:15:13;;;;;;;18.07;16.20;;;1.40;89.90;;;;;;5021493;28;20180;-90
2021/01/09 08:17:40;;;;;;;19.50;16.87;;;1.50;90.10;;;;;;5021838;28;20754;-90
2021/01/09 08:20:10;;;;;;;16.00;12.17;;;1.50;90.10;;;;;;5020831;28;20189;-89
2021/01/09 08:22:38;;;;;;;14.97;12.13;;;1.50;90.00;;;;;;5018985;28;20189;-89
2021/01/09 08:25:11;;;;;;;16.30;13.37;;;1.50;90.70;;;;;;5000802;28;20189;-90
2021/01/09 08:27:42;;;;;;;15.70;13.03;;;1.50;91.00;;;;;;5017812;28;20619;-90
2021/01/09 08:30:10;;;;;;;16.30;14.00;;;1.50;91.00;;;;;;5019111;28;20212;-89
2021/01/09 08:32:36;;;;;;;16.87;13.27;;;1.60;89.70;;;;;;5018241;28;20186;-90
2021/01/09 08:35:02;;;;;;;15.67;12.07;;;1.50;89.20;;;;;;5002024;28;20525;-88
2021/01/09 08:37:29;;;;;;;14.73;11.60;;;1.50;90.00;;;;;;5001613;28;20201;-89
2021/01/09 08:39:56;;;;;;;14.90;12.73;;;1.50;90.40;;;;;;5001422;28;20188;-90
2021/01/09 08:42:22;;;;;;;14.83;12.30;;;1.50;91.20;;;;;;5024113;28;20200;-89
2021/01/09 08:44:48;;;;;;;14.03;11.57;;;1.50;90.70;;;;;;5020933;28;20660;-89
2021/01/09 08:47:16;;;;;;;12.23;10.43;;;1.50;91.40;;;;;;5003485;28;20212;-88
2021/01/09 08:49:45;;;;;;;13.70;11.10;;;1.40;91.30;;;;;;5021841;28;20184;-88
2021/01/09 08:52:11;;;;;;;15.97;12.80;;;1.20;92.10;;;;;;5021673;28;20170;-90
2021/01/09 08:54:39;;;;;;;14.80;11.27;;;1.20;93.10;;;;;;5004479;28;20208;-89
2021/01/09 08:57:06;;;;;;;15.47;11.23;;;1.10;94.00;;;;;;5003942;28;20188;-89
2021/01/09 08:59:33;;;;;;;15.93;10.77;;;1.10;93.80;;;;;;5010161;28;20284;-88
2021/01/09 09:02:08;;;;;;;17.93;13.37;;;1.20;93.60;;;;;;5022420;28;20169;-88
2021/01/09 09:04:35;;;;;;;15.17;10.80;;;1.20;92.90;;;;;;5025504;28;20199;-89
2021/01/09 09:07:04;;;;;;;16.17;11.90;;;1.20;93.20;;;;;;5025762;28;20196;-89
2021/01/09 09:09:34;;;;;;;15.90;11.67;;;1.10;93.70;;;;;;4994555;28;20297;-89
2021/01/09 09:12:00;;;;;;;21.13;17.27;;;1.10;93.90;;;;;;5009428;28;20724;-89
2021/01/09 09:14:26;;;;;;;14.50;11.07;;;1.10;94.00;;;;;;4991750;28;20185;-89
2021/01/09 09:16:59;;;;;;;14.30;10.93;;;1.10;94.20;;;;;;5024139;28;20180;-89
2021/01/09 09:19:25;;;;;;;14.07;11.97;;;1.10;94.10;;;;;;4991368;28;20194;-89
2021/01/09 09:21:59;;;;;;;16.10;12.87;;;1.10;94.30;;;;;;5023498;28;20182;-89
2021/01/09 09:24:46;;;;;;;13.70;10.67;;;1.10;94.20;;;;;;5023632;28;20550;-90
2021/01/09 09:27:25;;;;;;;14.30;10.83;;;1.10;94.70;;;;;;5024080;28;20579;-90
2021/01/09 09:30:12;;;;;;;13.93;11.20;;;1.10;95.10;;;;;;5024167;28;20272;-89
2021/01/09 09:32:43;;;;;;;14.23;10.90;;;1.10;95.20;;;;;;4986416;28;20182;-83
2021/01/09 09:35:21;;;;;;;17.57;13.57;;;1.10;96.00;;;;;;5002183;28;20185;-89
2021/01/09 09:37:48;;;;;;;18.43;14.40;;;1.20;96.10;;;;;;5013448;28;20221;-89
2021/01/09 09:40:26;;;;;;;17.77;13.87;;;1.20;96.70;;;;;;5013069;28;20498;-89
2021/01/09 09:42:52;;;;;;;44.50;28.43;;;1.30;94.80;;;;;;5005078;28;20277;-88
2021/01/09 09:45:18;;;;;;;60.33;34.00;;;1.40;94.30;;;;;;5008622;28;20193;-89
2021/01/09 09:47:48;;;;;;;33.23;22.87;;;1.50;94.60;;;;;;5012249;28;20723;-89
2021/01/09 09:50:21;;;;;;;22.70;16.70;;;1.60;93.10;;;;;;5008818;28;20248;-91
2021/01/09 09:53:01;;;;;;;36.23;24.63;;;1.60;92.40;;;;;;5008450;28;20186;-89
2021/01/09 09:55:27;;;;;;;28.67;21.73;;;1.60;93.50;;;;;;5010791;28;20683;-89
2021/01/09 09:58:06;;;;;;;23.03;17.63;;;1.70;93.60;;;;;;5014379;28;20738;-89
2021/01/09 10:00:39;;;;;;;19.57;16.83;;;1.80;92.50;;;;;;5017969;28;20181;-90
2021/01/09 10:03:05;;;;;;;21.33;16.17;;;1.90;91.80;;;;;;5012968;28;20189;-90
2021/01/09 10:05:30;;;;;;;19.77;16.03;;;1.90;91.70;;;;;;4994445;28;20233;-90
2021/01/09 10:08:09;;;;;;;24.03;18.17;;;1.90;91.80;;;;;;4999109;28;20214;-89
2021/01/09 10:10:35;;;;;;;21.50;16.73;;;2.00;91.60;;;;;;5015593;28;20224;-89
2021/01/09 10:13:00;;;;;;;20.77;17.67;;;2.00;91.20;;;;;;5006522;28;20182;-88
2021/01/09 10:15:26;;;;;;;21.80;17.93;;;2.00;91.50;;;;;;5015228;28;20571;-88
2021/01/09 10:17:56;;;;;;;22.43;19.40;;;2.00;91.00;;;;;;5019725;28;20220;-89
2021/01/09 10:20:22;;;;;;;22.37;17.57;;;2.00;91.10;;;;;;5021841;28;20177;-89
2021/01/09 10:22:47;;;;;;;23.87;19.60;;;2.00;91.50;;;;;;5021003;28;20182;-88
2021/01/09 10:25:13;;;;;;;21.00;18.07;;;2.10;90.90;;;;;;5019434;28;20268;-88
2021/01/09 10:27:39;;;;;;;23.53;17.63;;;2.10;90.30;;;;;;5018689;28;20236;-88
2021/01/09 10:30:05;;;;;;;23.97;19.67;;;2.10;90.30;;;;;;5018902;28;20213;-87
2021/01/09 10:32:31;;;;;;;24.80;22.00;;;2.10;89.90;;;;;;5019617;28;20190;-88
2021/01/09 10:34:57;;;;;;;25.37;20.37;;;2.20;90.80;;;;;;5019028;28;20189;-88
2021/01/09 10:37:22;;;;;;;22.27;18.30;;;2.30;90.90;;;;;;5001569;28;20198;-88
2021/01/09 10:39:48;;;;;;;26.30;21.03;;;2.40;90.80;;;;;;5018946;28;20212;-89
2021/01/09 10:42:14;;;;;;;22.63;18.00;;;2.50;88.70;;;;;;5017249;28;20174;-89
2021/01/09 10:44:40;;;;;;;23.60;18.33;;;2.60;88.50;;;;;;5017663;28;20177;-89
2021/01/09 10:47:06;;;;;;;27.10;20.13;;;2.70;87.70;;;;;;5018930;28;20653;-89
2021/01/09 10:49:31;;;;;;;23.30;17.67;;;2.60;86.70;;;;;;5017321;28;20170;-89
2021/01/09 10:51:57;;;;;;;21.97;17.17;;;2.50;86.80;;;;;;5016592;28;20217;-89
2021/01/09 10:54:23;;;;;;;21.93;17.53;;;2.50;87.40;;;;;;4998976;28;20185;-89
2021/01/09 10:56:48;;;;;;;21.33;17.33;;;2.60;87.90;;;;;;5016470;28;20185;-89
2021/01/09 10:59:14;;;;;;;20.63;18.37;;;2.60;86.90;;;;;;5005712;28;20213;-89
2021/01/09 11:01:40;;;;;;;23.50;18.30;;;2.90;86.90;;;;;;5018405;28;20619;-89
2021/01/09 11:04:05;;;;;;;22.47;19.23;;;3.30;84.60;;;;;;4998794;28;20600;-90
2021/01/09 11:06:31;;;;;;;20.10;16.00;;;3.30;84.70;;;;;;5018192;28;20293;-89
2021/01/09 11:08:57;;;;;;;20.70;15.90;;;3.40;83.40;;;;;;5019647;28;20235;-89
2021/01/09 11:11:23;;;;;;;17.77;14.77;;;3.50;81.90;;;;;;5026533;28;20224;-89
2021/01/09 11:13:49;;;;;;;20.50;15.57;;;3.40;81.60;;;;;;5016703;28;20190;-89
2021/01/09 11:16:22;;;;;;;22.33;17.13;;;3.10;81.90;;;;;;5016856;28;20209;-89
2021/01/09 11:18:49;;;;;;;21.00;15.77;;;2.90;83.80;;;;;;5017839;28;20205;-90
2021/01/09 11:21:15;;;;;;;20.10;16.23;;;2.80;83.60;;;;;;5018049;28;20273;-89
2021/01/09 11:23:45;;;;;;;24.20;19.53;;;2.70;83.60;;;;;;5017801;28;20215;-89
2021/01/09 11:26:12;;;;;;;20.27;16.23;;;2.80;83.90;;;;;;5005615;28;20275;-90
2021/01/09 11:28:38;;;;;;;21.57;19.27;;;2.80;83.60;;;;;;5019511;28;20223;-89
2021/01/09 11:31:07;;;;;;;28.17;21.83;;;2.80;83.20;;;;;;5016369;28;20304;-90
2021/01/09 11:33:33;;;;;;;21.57;18.23;;;2.80;83.50;;;;;;5019431;28;20205;-88
2021/01/09 11:35:58;;;;;;;17.00;14.60;;;2.80;83.70;;;;;;5017399;28;20559;-89
2021/01/09 11:38:24;;;;;;;17.23;15.03;;;2.70;84.40;;;;;;5018903;28;20696;-88
2021/01/09 11:40:50;;;;;;;21.10;17.90;;;2.70;85.00;;;;;;5019696;28;20228;-88
2021/01/09 11:43:17;;;;;;;19.10;16.37;;;2.80;84.80;;;;;;4978442;28;20239;-87
2021/01/09 11:45:43;;;;;;;18.47;16.47;;;2.80;84.30;;;;;;5020822;28;20188;-88
2021/01/09 11:48:09;;;;;;;17.17;14.93;;;2.80;84.40;;;;;;5019487;28;20660;-88
2021/01/09 11:50:34;;;;;;;17.03;14.10;;;2.80;83.40;;;;;;5002570;28;20628;-88
2021/01/09 11:53:00;;;;;;;18.63;14.07;;;2.80;84.00;;;;;;5019643;28;20194;-88
2021/01/09 11:55:25;;;;;;;20.37;18.13;;;2.90;84.60;;;;;;5017385;28;20208;-88
2021/01/09 11:57:51;;;;;;;19.20;16.73;;;2.90;83.40;;;;;;5019221;28;20201;-88
2021/01/09 12:00:19;;;;;;;19.87;16.63;;;3.00;83.60;;;;;;5000992;28;20200;-89
2021/01/09 12:02:45;;;;;;;19.30;14.63;;;2.90;85.00;;;;;;5017459;28;20185;-88
2021/01/09 12:05:11;;;;;;;19.87;17.13;;;3.00;84.00;;;;;;4999264;28;20553;-88
2021/01/09 12:07:36;;;;;;;16.83;14.80;;;3.00;83.90;;;;;;5017172;28;20280;-88
2021/01/09 12:10:04;;;;;;;19.27;15.87;;;2.90;84.50;;;;;;4999180;28;20244;-88
2021/01/09 12:12:29;;;;;;;20.83;16.43;;;2.80;84.10;;;;;;5017229;28;20221;-88
2021/01/09 12:14:55;;;;;;;20.30;16.43;;;3.00;84.80;;;;;;5016798;28;20213;-88
2021/01/09 12:17:20;;;;;;;18.87;15.43;;;3.50;84.50;;;;;;5016985;28;20190;-88
2021/01/09 12:19:46;;;;;;;21.57;17.80;;;4.00;79.60;;;;;;5016674;28;20193;-88
2021/01/09 12:22:12;;;;;;;17.60;15.47;;;4.40;79.40;;;;;;5016772;28;20198;-88
2021/01/09 12:24:37;;;;;;;18.43;15.73;;;4.80;77.30;;;;;;5017696;28;20657;-88
2021/01/09 12:27:03;;;;;;;17.30;14.77;;;4.90;75.80;;;;;;5000040;28;20526;-88
2021/01/09 12:29:29;;;;;;;19.07;16.53;;;4.80;75.50;;;;;;5015692;28;20201;-88
2021/01/09 12:31:55;;;;;;;20.23;17.70;;;4.70;75.70;;;;;;5018403;28;20936;-88
2021/01/09 12:34:20;;;;;;;19.07;16.63;;;4.80;76.40;;;;;;5016794;28;20186;-87
2021/01/09 12:36:50;;;;;;;19.07;15.57;;;4.90;75.40;;;;;;4998631;28;20185;-88
2021/01/09 12:39:16;;;;;;;17.93;14.67;;;5.00;74.90;;;;;;5012129;28;20263;-88
2021/01/09 12:41:42;;;;;;;17.17;14.73;;;5.10;73.30;;;;;;5015805;28;20297;-88